createdAt,value
2022-10-01T00:01:07.927Z,6.10
2022-10-01T00:03:36.048Z,6.28
2022-10-01T00:06:22.804Z,7.30
2022-10-01T00:08:50.779Z,7.10
2022-10-01T00:11:26.049Z,6.72
2022-10-01T00:13:54.372Z,8.20
2022-10-01T00:16:25.443Z,6.50
2022-10-01T00:18:56.371Z,6.50
2022-10-01T00:21:25.547Z,5.30
2022-10-01T00:23:56.469Z,5.90
2022-10-01T00:26:27.356Z,6.72
2022-10-01T00:28:57.187Z,9.25
2022-10-01T00:31:24.454Z,8.80
2022-10-01T00:33:56.089Z,7.60
2022-10-01T00:36:22.630Z,7.45
2022-10-01T00:38:49.219Z,6.32
2022-10-01T00:41:17.297Z,6.50
2022-10-01T00:43:47.163Z,6.43
2022-10-01T00:46:17.512Z,6.03
2022-10-01T00:48:58.287Z,5.72
2022-10-01T00:51:35.648Z,5.38
2022-10-01T00:54:15.288Z,5.70
2022-10-01T00:56:44.091Z,5.97
2022-10-01T00:59:12.213Z,5.95
2022-10-01T01:01:39.439Z,5.88
2022-10-01T01:04:16.597Z,5.35
2022-10-01T01:06:55.919Z,5.80
2022-10-01T01:09:26.707Z,5.55
2022-10-01T01:12:18.274Z,5.68
2022-10-01T01:15:04.810Z,5.97
2022-10-01T01:17:42.138Z,7.13
2022-10-01T01:20:17.365Z,6.72
2022-10-01T01:22:53.770Z,6.47
2022-10-01T01:25:29.124Z,6.03
2022-10-01T01:27:58.728Z,6.00
2022-10-01T01:30:26.609Z,5.90
2022-10-01T01:32:56.105Z,5.90
2022-10-01T01:36:09.299Z,6.53
2022-10-01T01:38:43.025Z,6.35
2022-10-01T01:41:12.553Z,6.65
2022-10-01T01:43:44.068Z,6.25
2022-10-01T01:46:12.694Z,5.65
2022-10-01T01:48:41.841Z,5.80
2022-10-01T01:51:24.705Z,6.55
2022-10-01T01:53:51.900Z,7.53
2022-10-01T01:56:18.457Z,7.00
2022-10-01T01:58:46.332Z,6.88
2022-10-01T02:01:51.842Z,6.80
2022-10-01T02:04:24.200Z,5.82
2022-10-01T02:07:18.491Z,6.00
2022-10-01T02:09:54.403Z,7.05
2022-10-01T02:12:45.064Z,6.53
2022-10-01T02:15:18.243Z,7.60
2022-10-01T02:17:44.741Z,6.53
2022-10-01T02:20:18.807Z,6.22
2022-10-01T02:22:54.168Z,5.80
2022-10-01T02:25:27.038Z,6.38
2022-10-01T02:28:02.652Z,6.32
2022-10-01T02:30:33.254Z,6.97
2022-10-01T02:33:03.638Z,6.93
2022-10-01T02:35:33.866Z,6.80
2022-10-01T02:38:04.297Z,6.70
2022-10-01T02:40:34.901Z,6.75
2022-10-01T02:43:09.294Z,6.10
2022-10-01T02:45:39.351Z,6.43
2022-10-01T02:48:11.888Z,6.45
2022-10-01T02:50:48.415Z,6.50
2022-10-01T02:53:27.487Z,6.32
2022-10-01T02:55:56.600Z,6.45
2022-10-01T02:58:23.437Z,6.10
2022-10-01T03:00:49.990Z,6.47
2022-10-01T03:03:16.565Z,6.93
2022-10-01T03:05:43.139Z,7.40
2022-10-01T03:08:09.679Z,7.15
2022-10-01T03:10:36.265Z,7.28
2022-10-01T03:13:02.889Z,6.65
2022-10-01T03:15:29.566Z,6.68
2022-10-01T03:17:56.202Z,6.90
2022-10-01T03:20:22.780Z,6.63
2022-10-01T03:22:49.660Z,6.70
2022-10-01T03:25:17.217Z,6.57
2022-10-01T03:27:43.991Z,7.03
2022-10-01T03:30:11.341Z,6.72
2022-10-01T03:32:38.007Z,7.20
2022-10-01T03:35:05.300Z,7.50
2022-10-01T03:37:31.901Z,8.18
2022-10-01T03:39:58.453Z,6.68
2022-10-01T03:42:25.092Z,6.47
2022-10-01T03:44:52.094Z,7.57
2022-10-01T03:47:18.691Z,7.07
2022-10-01T03:49:45.224Z,6.78
2022-10-01T03:52:11.801Z,7.38
2022-10-01T03:54:39.420Z,7.40
2022-10-01T03:57:06.819Z,6.90
2022-10-01T03:59:33.359Z,7.57
2022-10-01T04:02:00.036Z,7.22
2022-10-01T04:04:29.059Z,7.22
2022-10-01T04:06:55.679Z,8.00
2022-10-01T04:09:23.681Z,8.57
2022-10-01T04:11:50.567Z,9.63
2022-10-01T04:14:17.190Z,9.98
2022-10-01T04:16:46.627Z,10.00
2022-10-01T04:19:13.164Z,9.27
2022-10-01T04:21:39.755Z,7.80
2022-10-01T04:24:06.537Z,6.82
2022-10-01T04:26:33.145Z,7.35
2022-10-01T04:28:59.744Z,7.88
2022-10-01T04:31:26.581Z,8.32
2022-10-01T04:33:55.203Z,8.63
2022-10-01T04:36:23.821Z,8.63
2022-10-01T04:38:57.961Z,8.55
2022-10-01T04:41:30.404Z,8.98
2022-10-01T04:43:59.373Z,9.00
2022-10-01T04:46:26.219Z,8.10
2022-10-01T04:48:52.812Z,7.22
2022-10-01T04:51:20.200Z,7.38
2022-10-01T04:53:47.128Z,8.20
2022-10-01T04:56:14.307Z,7.95
2022-10-01T04:58:41.317Z,10.32
2022-10-01T05:01:07.963Z,9.20
2022-10-01T05:03:34.739Z,11.30
2022-10-01T05:06:01.932Z,10.18
2022-10-01T05:08:31.277Z,9.73
2022-10-01T05:10:59.552Z,8.43
2022-10-01T05:13:30.112Z,7.70
2022-10-01T05:15:57.247Z,7.35
2022-10-01T05:18:23.864Z,7.38
2022-10-01T05:20:50.505Z,6.63
2022-10-01T05:23:17.058Z,6.82
2022-10-01T05:25:46.795Z,8.07
2022-10-01T05:28:17.059Z,8.80
2022-10-01T05:30:46.796Z,9.82
2022-10-01T05:33:13.393Z,11.80
2022-10-01T05:35:40.999Z,8.93
2022-10-01T05:38:07.559Z,6.90
2022-10-01T05:40:34.122Z,7.60
2022-10-01T05:43:01.704Z,7.50
2022-10-01T05:45:30.071Z,7.85
2022-10-01T05:48:01.789Z,8.15
2022-10-01T05:50:33.041Z,7.57
2022-10-01T05:53:00.931Z,7.22
2022-10-01T05:55:31.936Z,6.60
2022-10-01T05:58:04.464Z,6.82
2022-10-01T06:00:32.651Z,6.25
2022-10-01T06:03:00.958Z,6.72
2022-10-01T06:05:29.887Z,6.60
2022-10-01T06:07:56.626Z,6.15
2022-10-01T06:10:24.656Z,7.82
2022-10-01T06:12:51.969Z,7.75
2022-10-01T06:15:18.986Z,7.90
2022-10-01T06:17:45.587Z,7.68
2022-10-01T06:20:14.382Z,6.38
2022-10-01T06:22:43.079Z,6.43
2022-10-01T06:25:11.412Z,6.85
2022-10-01T06:27:38.541Z,6.03
2022-10-01T06:30:06.267Z,6.25
2022-10-01T06:32:34.932Z,6.90
2022-10-01T06:35:02.322Z,6.38
2022-10-01T06:37:29.000Z,6.25
2022-10-01T06:39:55.765Z,5.97
2022-10-01T06:42:22.421Z,5.90
2022-10-01T06:44:49.051Z,5.57
2022-10-01T06:47:15.603Z,6.72
2022-10-01T06:49:47.297Z,5.93
2022-10-01T06:52:33.118Z,5.63
2022-10-01T06:55:01.487Z,6.00
2022-10-01T06:57:28.932Z,5.65
2022-10-01T06:59:55.835Z,6.05
2022-10-01T07:02:28.110Z,6.45
2022-10-01T07:05:01.749Z,6.30
2022-10-01T07:09:59.305Z,5.65
2022-10-01T07:12:26.471Z,5.88
2022-10-01T07:14:54.002Z,5.35
2022-10-01T07:17:21.446Z,5.80
2022-10-01T07:19:48.076Z,5.82
2022-10-01T07:22:14.639Z,5.68
2022-10-01T07:24:41.329Z,5.43
2022-10-01T07:27:08.044Z,5.70
2022-10-01T07:29:34.642Z,5.30
2022-10-01T07:32:02.130Z,5.65
2022-10-01T07:34:31.140Z,5.88
2022-10-01T07:36:57.813Z,6.80
2022-10-01T07:39:24.453Z,6.75
2022-10-01T07:41:51.925Z,6.18
2022-10-01T07:44:19.488Z,6.07
2022-10-01T07:46:47.301Z,6.38
2022-10-01T07:49:15.134Z,5.45
2022-10-01T07:51:43.980Z,6.22
2022-10-01T07:54:10.718Z,5.70
2022-10-01T07:56:37.718Z,5.78
2022-10-01T07:59:04.427Z,6.28
2022-10-01T08:01:34.228Z,5.97
2022-10-01T08:04:01.360Z,6.28
2022-10-01T08:06:27.991Z,9.20
2022-10-01T08:08:54.545Z,6.40
2022-10-01T08:11:21.177Z,6.80
2022-10-01T08:13:48.080Z,5.70
2022-10-01T08:16:14.739Z,8.50
2022-10-01T08:18:41.343Z,7.70
2022-10-01T08:21:08.616Z,5.93
2022-10-01T08:23:35.578Z,6.38
2022-10-01T08:26:05.765Z,8.77
2022-10-01T08:28:33.612Z,6.32
2022-10-01T08:31:07.458Z,10.75
2022-10-01T08:33:35.000Z,7.75
2022-10-01T08:36:03.076Z,16.48
2022-10-01T08:38:29.665Z,7.93
2022-10-01T08:40:59.796Z,5.90
2022-10-01T08:43:38.432Z,8.00
2022-10-01T08:46:11.347Z,6.38
2022-10-01T08:48:46.855Z,6.78
2022-10-01T08:51:29.353Z,6.50
2022-10-01T08:54:14.747Z,8.30
2022-10-01T08:56:46.383Z,6.15
2022-10-01T08:59:39.619Z,6.35
2022-10-01T09:02:18.449Z,6.63
2022-10-01T09:04:46.951Z,6.00
2022-10-01T09:07:50.825Z,6.53
2022-10-01T09:10:35.886Z,6.10
2022-10-01T09:13:40.097Z,6.72
2022-10-01T09:19:31.638Z,6.57
2022-10-01T09:22:03.330Z,6.20
2022-10-01T09:24:50.062Z,6.53
2022-10-01T09:27:19.169Z,6.32
2022-10-01T09:30:14.364Z,6.20
2022-10-01T09:32:53.700Z,5.97
2022-10-01T09:35:20.398Z,6.47
2022-10-01T09:37:57.202Z,6.75
2022-10-01T09:40:34.052Z,7.35
2022-10-01T09:43:01.274Z,7.65
2022-10-01T09:45:28.699Z,7.72
2022-10-01T09:48:04.019Z,7.13
2022-10-01T09:50:50.439Z,6.63
2022-10-01T09:53:22.913Z,7.45
2022-10-01T09:55:56.729Z,6.90
2022-10-01T09:58:26.743Z,6.82
2022-10-01T10:00:54.999Z,7.15
2022-10-01T10:03:28.831Z,6.25
2022-10-01T10:05:56.705Z,7.05
2022-10-01T10:08:28.274Z,8.68
2022-10-01T10:11:08.310Z,7.65
2022-10-01T10:13:39.470Z,7.20
2022-10-01T10:16:35.283Z,7.10
2022-10-01T10:19:10.274Z,6.75
2022-10-01T10:21:37.874Z,7.40
2022-10-01T10:24:06.955Z,7.22
2022-10-01T10:26:39.414Z,6.65
2022-10-01T10:29:12.220Z,7.28
2022-10-01T10:31:44.302Z,7.90
2022-10-01T10:34:39.552Z,7.30
2022-10-01T10:37:14.764Z,7.13
2022-10-01T10:39:45.419Z,6.93
2022-10-01T10:42:18.889Z,6.95
2022-10-01T10:44:49.358Z,6.97
2022-10-01T10:47:20.106Z,7.43
2022-10-01T10:50:01.303Z,7.30
2022-10-01T10:52:36.249Z,7.00
2022-10-01T10:55:25.170Z,6.63
2022-10-01T10:57:57.290Z,7.40
2022-10-01T11:00:25.777Z,6.50
2022-10-01T11:02:57.614Z,7.40
2022-10-01T11:05:30.092Z,6.38
2022-10-01T11:08:03.161Z,6.90
2022-10-01T11:10:42.089Z,6.63
2022-10-01T11:13:24.355Z,7.05
2022-10-01T11:16:12.853Z,5.78
2022-10-01T11:18:51.464Z,7.03
2022-10-01T11:21:40.456Z,6.68
2022-10-01T11:24:41.268Z,6.90
2022-10-01T11:27:42.624Z,6.22
2022-10-01T11:30:11.988Z,6.40
2022-10-01T11:32:46.139Z,6.68
2022-10-01T11:35:19.585Z,6.40
2022-10-01T11:40:29.159Z,6.05
2022-10-01T11:43:02.998Z,6.40
2022-10-01T11:45:36.748Z,6.78
2022-10-01T11:48:17.748Z,5.93
2022-10-01T11:50:48.843Z,6.30
2022-10-01T11:53:23.852Z,6.50
2022-10-01T11:56:16.993Z,6.28
2022-10-01T11:58:56.841Z,5.47
2022-10-01T12:01:41.626Z,5.70
2022-10-01T12:04:43.386Z,5.72
2022-10-01T12:07:17.549Z,5.97
2022-10-01T12:10:25.977Z,5.93
2022-10-01T12:13:00.526Z,5.50
2022-10-01T12:15:50.253Z,5.85
2022-10-01T12:18:39.124Z,6.05
2022-10-01T12:21:21.216Z,6.72
2022-10-01T12:23:57.449Z,5.50
2022-10-01T12:26:35.076Z,5.57
2022-10-01T12:29:14.877Z,5.85
2022-10-01T12:32:00.280Z,6.47
2022-10-01T12:34:38.612Z,5.90
2022-10-01T12:37:27.473Z,6.45
2022-10-01T12:40:10.234Z,6.60
2022-10-01T12:43:04.697Z,5.30
2022-10-01T12:46:02.625Z,5.75
2022-10-01T12:48:48.425Z,6.22
2022-10-01T12:51:52.464Z,5.70
2022-10-01T12:54:57.425Z,6.57
2022-10-01T12:57:36.923Z,6.75
2022-10-01T13:00:11.060Z,5.82
2022-10-01T13:03:00.654Z,6.28
2022-10-01T13:05:30.029Z,6.35
2022-10-01T13:08:14.803Z,6.00
2022-10-01T13:10:41.292Z,6.10
2022-10-01T13:13:17.226Z,7.00
2022-10-01T13:15:47.815Z,6.50
2022-10-01T13:18:20.392Z,6.72
2022-10-01T13:21:25.392Z,6.10
2022-10-01T13:24:04.446Z,5.60
2022-10-01T13:26:51.377Z,6.32
2022-10-01T13:29:43.352Z,7.18
2022-10-01T13:32:34.723Z,7.50
2022-10-01T13:35:21.402Z,7.88
2022-10-01T13:37:47.955Z,8.23
2022-10-01T13:40:30.493Z,8.02
2022-10-01T13:43:07.911Z,7.63
2022-10-01T13:45:37.241Z,7.10
2022-10-01T13:48:15.268Z,7.28
2022-10-01T13:51:04.349Z,6.85
2022-10-01T13:53:37.921Z,7.22
2022-10-01T13:56:05.658Z,7.53
2022-10-01T13:58:39.317Z,6.65
2022-10-01T14:01:28.165Z,6.53
2022-10-01T14:04:01.486Z,7.05
2022-10-01T14:06:32.956Z,6.90
2022-10-01T14:09:02.620Z,6.35
2022-10-01T14:11:51.516Z,6.82
2022-10-01T14:14:41.104Z,6.70
2022-10-01T14:17:09.803Z,6.70
2022-10-01T14:19:37.199Z,7.05
2022-10-01T14:22:17.653Z,6.78
2022-10-01T14:25:14.787Z,5.82
2022-10-01T14:28:08.705Z,6.80
2022-10-01T14:33:24.875Z,6.88
2022-10-01T14:36:10.115Z,6.35
2022-10-01T14:38:36.665Z,5.80
2022-10-01T14:41:03.227Z,7.53
2022-10-01T14:43:31.954Z,6.55
2022-10-01T14:45:58.957Z,6.70
2022-10-01T14:48:28.517Z,6.40
2022-10-01T14:51:06.783Z,6.10
2022-10-01T14:53:41.938Z,6.15
2022-10-01T14:56:14.072Z,6.18
2022-10-01T14:58:56.561Z,6.22
2022-10-01T15:01:25.414Z,7.05
2022-10-01T15:03:52.801Z,7.55
2022-10-01T15:06:29.769Z,8.32
2022-10-01T15:09:10.747Z,10.13
2022-10-01T15:11:44.286Z,8.55
2022-10-01T15:14:18.044Z,7.45
2022-10-01T15:16:44.932Z,7.22
2022-10-01T15:19:21.872Z,7.40
2022-10-01T15:21:57.588Z,7.80
2022-10-01T15:24:45.607Z,7.63
2022-10-01T15:27:20.534Z,7.00
2022-10-01T15:29:56.011Z,7.95
2022-10-01T15:32:25.202Z,7.15
2022-10-01T15:34:58.100Z,9.90
2022-10-01T15:37:36.614Z,8.13
2022-10-01T15:40:06.661Z,9.48
2022-10-01T15:42:34.871Z,8.82
2022-10-01T15:45:07.270Z,8.30
2022-10-01T15:47:34.125Z,9.00
2022-10-01T15:50:16.549Z,8.43
2022-10-01T15:53:03.353Z,8.25
2022-10-01T15:55:34.597Z,8.38
2022-10-01T15:58:13.086Z,10.48
2022-10-01T16:00:56.847Z,11.00
2022-10-01T16:03:36.052Z,11.30
2022-10-01T16:06:06.550Z,10.55
2022-10-01T16:08:48.156Z,10.05
2022-10-01T16:11:24.155Z,9.32
2022-10-01T16:13:52.787Z,11.35
2022-10-01T16:16:27.476Z,11.35
2022-10-01T16:18:58.379Z,10.65
2022-10-01T16:21:25.916Z,9.75
2022-10-01T16:23:54.714Z,13.30
2022-10-01T16:26:27.391Z,9.88
2022-10-01T16:29:03.314Z,11.10
2022-10-01T16:31:30.640Z,11.07
2022-10-01T16:33:57.348Z,13.15
2022-10-01T16:36:26.467Z,12.15
2022-10-01T16:38:53.444Z,19.48
2022-10-01T16:41:23.373Z,20.60
2022-10-01T16:43:51.459Z,11.23
2022-10-01T16:46:18.199Z,10.13
2022-10-01T16:48:47.896Z,9.90
2022-10-01T16:51:14.482Z,9.82
2022-10-01T16:53:42.946Z,10.05
2022-10-01T16:56:10.825Z,10.00
2022-10-01T16:58:41.823Z,11.00
2022-10-01T17:01:09.867Z,10.35
2022-10-01T17:03:36.596Z,10.02
2022-10-01T17:06:03.825Z,9.30
2022-10-01T17:08:30.444Z,9.57
2022-10-01T17:11:01.972Z,9.52
2022-10-01T17:13:32.706Z,8.93
2022-10-01T17:16:00.724Z,9.23
2022-10-01T17:18:27.832Z,10.18
2022-10-01T17:20:56.091Z,9.82
2022-10-01T17:23:22.764Z,9.55
2022-10-01T17:25:49.910Z,12.65
2022-10-01T17:28:20.081Z,11.85
2022-10-01T17:30:48.579Z,12.93
2022-10-01T17:33:18.892Z,11.95
2022-10-01T17:35:51.573Z,9.32
2022-10-01T17:38:19.359Z,8.10
2022-10-01T17:40:46.307Z,6.97
2022-10-01T17:43:14.920Z,7.57
2022-10-01T17:45:42.269Z,7.28
2022-10-01T17:48:09.061Z,8.70
2022-10-01T17:50:43.677Z,9.02
2022-10-01T17:53:11.656Z,7.22
2022-10-01T17:55:42.021Z,8.65
2022-10-01T17:58:08.601Z,8.18
2022-10-01T18:00:35.379Z,8.02
2022-10-01T18:03:02.150Z,8.48
2022-10-01T18:05:28.790Z,7.47
2022-10-01T18:07:55.509Z,7.93
2022-10-01T18:10:22.071Z,8.65
2022-10-01T18:12:48.834Z,8.85
2022-10-01T18:15:18.756Z,7.78
2022-10-01T18:17:51.428Z,8.85
2022-10-01T18:20:24.387Z,9.57
2022-10-01T18:22:51.369Z,8.33
2022-10-01T18:25:19.422Z,8.25
2022-10-01T18:27:50.089Z,7.60
2022-10-01T18:30:17.781Z,7.47
2022-10-01T18:32:48.543Z,7.10
2022-10-01T18:35:30.084Z,7.13
2022-10-01T18:38:02.772Z,7.63
2022-10-01T18:40:42.184Z,6.90
2022-10-01T18:43:22.133Z,7.15
2022-10-01T18:46:07.028Z,8.30
2022-10-01T18:48:55.945Z,8.05
2022-10-01T18:51:41.037Z,8.60
2022-10-01T18:54:34.544Z,8.65
2022-10-01T18:57:18.639Z,9.35
2022-10-01T19:00:10.821Z,8.18
2022-10-01T19:02:56.207Z,8.10
2022-10-01T19:05:58.064Z,7.93
2022-10-01T19:08:28.827Z,7.13
2022-10-01T19:11:17.842Z,7.28
2022-10-01T19:13:50.536Z,6.95
2022-10-01T19:16:24.570Z,6.40
2022-10-01T19:19:24.437Z,6.93
2022-10-01T19:21:53.783Z,7.10
2022-10-01T19:24:34.011Z,7.57
2022-10-01T19:27:19.418Z,6.75
2022-10-01T19:29:57.553Z,6.57
2022-10-01T19:32:30.163Z,6.68
2022-10-01T19:35:06.174Z,6.72
2022-10-01T19:37:39.391Z,6.55
2022-10-01T19:40:49.386Z,7.10
2022-10-01T19:43:22.479Z,6.78
2022-10-01T19:45:59.157Z,7.22
2022-10-01T19:48:42.233Z,8.68
2022-10-01T19:51:12.596Z,8.02
2022-10-01T19:53:44.168Z,7.43
2022-10-01T19:56:18.720Z,6.90
2022-10-01T19:58:45.729Z,7.47
2022-10-01T20:01:20.118Z,8.02
2022-10-01T20:03:57.754Z,7.13
2022-10-01T20:06:41.274Z,7.85
2022-10-01T20:09:35.882Z,7.30
2022-10-01T20:12:12.707Z,7.47
2022-10-01T20:15:09.665Z,8.10
2022-10-01T20:18:08.060Z,7.75
2022-10-01T20:20:56.594Z,7.65
2022-10-01T20:23:39.532Z,7.70
2022-10-01T20:26:12.444Z,7.80
2022-10-01T20:28:57.488Z,7.72
2022-10-01T20:31:42.325Z,7.43
2022-10-01T20:34:38.217Z,7.28
2022-10-01T20:37:37.680Z,7.40
2022-10-01T20:40:26.514Z,6.30
2022-10-01T20:43:05.764Z,7.50
2022-10-01T20:45:35.505Z,7.07
2022-10-01T20:48:13.525Z,6.47
2022-10-01T20:50:47.772Z,6.75
2022-10-01T20:53:38.856Z,7.78
2022-10-01T20:56:13.639Z,6.88
2022-10-01T20:58:47.365Z,6.65
2022-10-01T21:01:21.594Z,6.20
2022-10-01T21:04:06.149Z,6.05
2022-10-01T21:06:45.906Z,6.32
2022-10-01T21:09:25.552Z,6.38
2022-10-01T21:12:15.315Z,5.80
2022-10-01T21:14:52.824Z,4.70
2022-10-01T21:17:47.033Z,5.75
2022-10-01T21:20:35.450Z,5.45
2022-10-01T21:23:10.548Z,5.57
2022-10-01T21:25:53.981Z,5.18
2022-10-01T21:28:32.705Z,5.32
2022-10-01T21:31:10.753Z,5.57
2022-10-01T21:33:54.055Z,6.95
2022-10-01T21:37:02.743Z,7.43
2022-10-01T21:39:38.255Z,8.10
2022-10-01T21:42:36.320Z,7.75
2022-10-01T21:45:02.871Z,7.90
2022-10-01T21:47:48.136Z,8.73
2022-10-01T21:50:22.516Z,7.82
2022-10-01T21:53:00.382Z,8.10
2022-10-01T21:55:45.356Z,7.75
2022-10-01T21:58:49.520Z,7.35
2022-10-01T22:01:44.182Z,7.68
2022-10-01T22:04:18.048Z,8.93
2022-10-01T22:07:01.917Z,7.82
2022-10-01T22:09:39.296Z,8.10
2022-10-01T22:12:07.227Z,7.85
2022-10-01T22:14:34.059Z,7.95
2022-10-01T22:17:26.405Z,7.35
2022-10-01T22:19:56.997Z,7.47
2022-10-01T22:22:30.172Z,6.68
2022-10-01T22:25:01.373Z,6.45
2022-10-01T22:27:32.150Z,6.47
2022-10-01T22:30:06.384Z,6.22
2022-10-01T22:32:40.598Z,5.90
2022-10-01T22:35:15.504Z,5.97
2022-10-01T22:38:09.856Z,5.78
2022-10-01T22:40:42.277Z,5.28
2022-10-01T22:43:11.225Z,5.68
2022-10-01T22:46:02.259Z,5.47
2022-10-01T22:48:47.466Z,5.00
2022-10-01T22:51:29.518Z,5.85
2022-10-01T22:54:34.632Z,6.35
2022-10-01T22:57:22.408Z,8.55
2022-10-01T22:59:52.019Z,8.20
2022-10-01T23:02:32.849Z,10.05
2022-10-01T23:05:38.029Z,9.10
2022-10-01T23:08:33.895Z,9.23
2022-10-01T23:11:15.014Z,11.15
2022-10-01T23:14:24.572Z,10.10
2022-10-01T23:17:17.302Z,8.40
2022-10-01T23:20:01.573Z,8.27
2022-10-01T23:22:43.717Z,6.93
2022-10-01T23:25:44.021Z,8.70
2022-10-01T23:28:41.702Z,8.82
2022-10-01T23:31:39.223Z,7.40
2022-10-01T23:34:28.880Z,7.80
2022-10-01T23:37:37.798Z,9.38
2022-10-01T23:40:09.902Z,8.73
2022-10-01T23:42:47.827Z,11.05
2022-10-01T23:45:39.220Z,11.43
2022-10-01T23:48:13.836Z,11.48
2022-10-01T23:50:48.768Z,11.77
2022-10-01T23:53:24.092Z,10.80
2022-10-01T23:56:24.952Z,12.15
2022-10-01T23:59:01.822Z,11.40
